Time;durP1;ratioP1;P1;durP2;ratioP2;P2;SDS_P1;SDS_P2;PMS_P1;PMS_P2;Temp;Humidity;BMP_temperature;BMP_pressure;BME280_temperature;BME280_humidity;BME280_pressure;Samples;Min_cycle;Max_cycle;Signal;HPM_P1;HPM_P2
2021/06/09 00:01:52;;;;;;;6.47;3.00;;;;;;;;;;8314291;28;20462;-67
2021/06/09 00:05:57;;;;;;;5.25;3.20;;;;;;;;;;8317414;28;20048;-68
2021/06/09 00:10:03;;;;;;;4.28;3.15;;;;;;;;;;8326153;28;20478;-68
2021/06/09 00:14:10;;;;;;;5.95;3.72;;;;;;;;;;8324082;28;20496;-67
2021/06/09 00:18:14;;;;;;;5.18;3.63;;;;;;;;;;8326945;28;20051;-67
2021/06/09 00:22:19;;;;;;;4.78;3.40;;;;;;;;;;8325780;28;20474;-67
2021/06/09 00:26:24;;;;;;;4.53;3.63;;;;;;;;;;8324887;28;20381;-68
2021/06/09 00:30:34;;;;;;;6.43;3.70;;;;;;;;;;8325607;28;20449;-70
2021/06/09 00:34:39;;;;;;;6.88;3.40;;;;;;;;;;8325916;28;20382;-67
2021/06/09 00:38:43;;;;;;;6.32;3.95;;;;;;;;;;8324057;28;20048;-68
2021/06/09 00:43:11;;;;;;;8.85;3.72;;;;;;;;;;8324853;28;20363;-67
2021/06/09 00:47:23;;;;;;;6.85;4.65;;;;;;;;;;8324754;28;20462;-67
2021/06/09 00:51:28;;;;;;;7.55;3.33;;;;;;;;;;8324575;28;20047;-67
2021/06/09 00:55:33;;;;;;;4.43;3.72;;;;;;;;;;8323954;28;20463;-67
2021/06/09 00:59:39;;;;;;;5.95;3.58;;;;;;;;;;8323790;28;20488;-68
2021/06/09 01:03:45;;;;;;;13.85;4.05;;;;;;;;;;8323406;28;20383;-67
2021/06/09 01:07:50;;;;;;;4.40;3.70;;;;;;;;;;8324598;28;20446;-67
2021/06/09 01:11:56;;;;;;;27.25;5.50;;;;;;;;;;8324907;28;20470;-68
2021/06/09 01:16:01;;;;;;;19.80;4.72;;;;;;;;;;8324185;28;20359;-67
2021/06/09 01:20:07;;;;;;;7.72;4.20;;;;;;;;;;8321876;28;20379;-67
2021/06/09 01:24:14;;;;;;;11.38;4.07;;;;;;;;;;8323492;28;20059;-67
2021/06/09 01:28:19;;;;;;;6.15;3.80;;;;;;;;;;8325812;28;20479;-67
2021/06/09 01:32:24;;;;;;;8.10;4.40;;;;;;;;;;8321954;28;20400;-67
2021/06/09 01:36:29;;;;;;;6.95;3.97;;;;;;;;;;8321578;28;20360;-68
2021/06/09 01:40:34;;;;;;;5.45;3.80;;;;;;;;;;8321781;28;20482;-67
2021/06/09 01:44:40;;;;;;;5.82;4.43;;;;;;;;;;8323249;28;20459;-67
2021/06/09 01:48:45;;;;;;;8.18;3.40;;;;;;;;;;8338551;28;20349;-68
2021/06/09 01:52:51;;;;;;;6.50;3.63;;;;;;;;;;8324827;28;20348;-68
2021/06/09 01:56:57;;;;;;;10.25;4.28;;;;;;;;;;8323074;28;20514;-67
2021/06/09 02:01:02;;;;;;;8.20;4.43;;;;;;;;;;8322561;28;20052;-67
2021/06/09 02:05:10;;;;;;;8.18;5.28;;;;;;;;;;8322312;28;20459;-66
2021/06/09 02:09:15;;;;;;;8.77;5.43;;;;;;;;;;8322205;28;20052;-68
2021/06/09 02:13:21;;;;;;;9.73;5.50;;;;;;;;;;8322778;28;20409;-66
2021/06/09 02:17:26;;;;;;;8.05;5.38;;;;;;;;;;8325170;28;20102;-67
2021/06/09 02:21:34;;;;;;;11.75;5.50;;;;;;;;;;8321277;28;20359;-67
2021/06/09 02:25:53;;;;;;;11.00;5.80;;;;;;;;;;8321751;28;20477;-66
2021/06/09 02:29:59;;;;;;;8.73;5.50;;;;;;;;;;8323144;28;20344;-66
2021/06/09 02:34:03;;;;;;;10.80;5.57;;;;;;;;;;8323836;28;20458;-66
2021/06/09 02:38:08;;;;;;;7.50;4.28;;;;;;;;;;8323195;28;20463;-67
2021/06/09 02:42:21;;;;;;;7.00;5.10;;;;;;;;;;8321595;28;20089;-67
2021/06/09 02:46:31;;;;;;;7.68;5.05;;;;;;;;;;8329380;28;20452;-66
2021/06/09 02:50:37;;;;;;;14.32;5.70;;;;;;;;;;8328979;28;20451;-67
2021/06/09 02:55:15;;;;;;;18.25;6.00;;;;;;;;;;8311805;28;20623;-67
2021/06/09 02:59:51;;;;;;;19.10;7.30;;;;;;;;;;8329109;28;20102;-67
2021/06/09 03:04:29;;;;;;;36.88;7.43;;;;;;;;;;8328968;28;20320;-67
2021/06/09 03:08:52;;;;;;;;;;;;;;;;;;8328949;28;20371;-66
2021/06/09 03:13:15;;;;;;;10.70;6.18;;;;;;;;;;8327177;28;20349;-66
2021/06/09 03:17:27;;;;;;;15.77;6.75;;;;;;;;;;8327458;28;20048;-66
2021/06/09 03:21:58;;;;;;;11.82;6.18;;;;;;;;;;8311150;28;20474;-67
2021/06/09 03:26:35;;;;;;;13.77;7.43;;;;;;;;;;8326918;28;20485;-66
2021/06/09 03:30:41;;;;;;;26.85;7.30;;;;;;;;;;8313717;28;20447;-67
2021/06/09 03:35:13;;;;;;;12.00;6.68;;;;;;;;;;8310809;28;20455;-66
2021/06/09 03:39:26;;;;;;;20.27;7.28;;;;;;;;;;8326496;28;20071;-66
2021/06/09 03:43:36;;;;;;;21.15;7.60;;;;;;;;;;8326378;28;20048;-66
2021/06/09 03:47:42;;;;;;;22.35;8.20;;;;;;;;;;8327559;28;20413;-66
2021/06/09 03:51:48;;;;;;;18.15;7.03;;;;;;;;;;8326534;28;20043;-66
2021/06/09 03:55:59;;;;;;;22.48;7.68;;;;;;;;;;8324124;28;20479;-66
2021/06/09 04:00:07;;;;;;;21.42;7.90;;;;;;;;;;8325532;28;21120;-67
2021/06/09 04:04:20;;;;;;;44.20;8.43;;;;;;;;;;8327512;28;20398;-68
2021/06/09 04:08:27;;;;;;;26.42;8.40;;;;;;;;;;8325363;28;20044;-67
2021/06/09 04:12:35;;;;;;;16.08;7.22;;;;;;;;;;8324069;28;20504;-67
2021/06/09 04:16:42;;;;;;;30.35;7.75;;;;;;;;;;8325789;28;20393;-67
2021/06/09 04:20:48;;;;;;;18.75;6.18;;;;;;;;;;8324172;28;20491;-67
2021/06/09 04:24:52;;;;;;;14.60;6.80;;;;;;;;;;8324098;28;20482;-66
2021/06/09 04:28:59;;;;;;;13.70;7.05;;;;;;;;;;8325712;28;20374;-66
2021/06/09 04:33:07;;;;;;;17.52;7.15;;;;;;;;;;8323938;28;20467;-67
2021/06/09 04:37:13;;;;;;;11.20;7.10;;;;;;;;;;8325276;28;20470;-67
2021/06/09 04:41:21;;;;;;;31.20;9.20;;;;;;;;;;8325374;28;20474;-66
2021/06/09 04:45:28;;;;;;;13.95;7.25;;;;;;;;;;8324536;28;20375;-67
2021/06/09 04:49:37;;;;;;;12.02;6.07;;;;;;;;;;8324719;28;20410;-67
2021/06/09 04:53:43;;;;;;;9.60;5.65;;;;;;;;;;8322005;28;20378;-66
2021/06/09 04:57:48;;;;;;;14.07;6.63;;;;;;;;;;8326535;28;20347;-67
2021/06/09 05:01:54;;;;;;;8.63;4.88;;;;;;;;;;8324124;28;20409;-68
2021/06/09 05:05:59;;;;;;;9.52;5.40;;;;;;;;;;8323204;28;20052;-67
2021/06/09 05:10:04;;;;;;;15.77;5.00;;;;;;;;;;8326108;28;20040;-68
2021/06/09 05:14:18;;;;;;;8.93;4.20;;;;;;;;;;8324468;28;20481;-67
2021/06/09 05:18:27;;;;;;;10.52;3.92;;;;;;;;;;8323841;28;20409;-67
2021/06/09 05:22:41;;;;;;;16.73;5.28;;;;;;;;;;8322541;28;20052;-68
2021/06/09 05:26:48;;;;;;;18.15;4.25;;;;;;;;;;8322176;28;20538;-65
2021/06/09 05:30:55;;;;;;;16.42;4.80;;;;;;;;;;8322964;28;20496;-65
2021/06/09 05:35:01;;;;;;;;;;;;;;;;;;8322904;28;20394;-64
2021/06/09 05:39:06;;;;;;;3.88;2.33;;;;;;;;;;8320911;28;20232;-66
2021/06/09 05:43:11;;;;;;;9.30;3.15;;;;;;;;;;8322858;28;20470;-65
2021/06/09 05:47:16;;;;;;;7.53;2.40;;;;;;;;;;8322478;28;20474;-65
2021/06/09 05:51:24;;;;;;;5.10;2.05;;;;;;;;;;8322225;28;20504;-67
2021/06/09 05:55:29;;;;;;;4.70;2.33;;;;;;;;;;8323624;28;20341;-66
2021/06/09 05:59:36;;;;;;;8.70;2.37;;;;;;;;;;8324094;28;20478;-65
2021/06/09 06:03:44;;;;;;;6.30;1.90;;;;;;;;;;8324290;28;20377;-66
2021/06/09 06:07:49;;;;;;;18.63;2.58;;;;;;;;;;8325329;28;20048;-66
2021/06/09 06:11:55;;;;;;;5.55;2.25;;;;;;;;;;8324359;28;20465;-66
2021/06/09 06:16:00;;;;;;;4.68;2.63;;;;;;;;;;8323997;28;20366;-67
2021/06/09 06:20:12;;;;;;;5.38;1.90;;;;;;;;;;8328534;28;20358;-67
2021/06/09 06:24:19;;;;;;;3.40;1.98;;;;;;;;;;8329027;28;20059;-67
2021/06/09 06:28:24;;;;;;;4.80;1.93;;;;;;;;;;8328009;28;20462;-67
2021/06/09 06:32:30;;;;;;;3.95;1.55;;;;;;;;;;8330563;28;20466;-67
2021/06/09 06:36:38;;;;;;;2.97;1.52;;;;;;;;;;8329229;28;20383;-68
2021/06/09 06:40:43;;;;;;;8.23;1.40;;;;;;;;;;8329474;28;20791;-67
2021/06/09 06:44:49;;;;;;;4.40;1.73;;;;;;;;;;8331069;28;20482;-67
2021/06/09 06:48:55;;;;;;;1.42;1.15;;;;;;;;;;8331125;28;20350;-68
2021/06/09 06:53:04;;;;;;;1.75;1.20;;;;;;;;;;8328630;28;20040;-68
2021/06/09 06:57:09;;;;;;;3.35;1.08;;;;;;;;;;8327007;28;20684;-68
2021/06/09 07:01:15;;;;;;;9.02;2.72;;;;;;;;;;8330151;28;20451;-68
2021/06/09 07:05:22;;;;;;;8.93;1.42;;;;;;;;;;8330592;28;20459;-67
2021/06/09 07:09:27;;;;;;;;;;;;;;;;;;8329826;28;20485;-67
2021/06/09 07:13:33;;;;;;;9.15;1.25;;;;;;;;;;8328837;28;20292;-68
2021/06/09 07:17:50;;;;;;;1.10;1.00;;;;;;;;;;8328685;28;20435;-67
2021/06/09 07:21:55;;;;;;;;;;;;;;;;;;8328912;28;20375;-67
2021/06/09 07:25:58;;;;;;;9.57;1.80;;;;;;;;;;8328073;28;19920;-68
2021/06/09 07:30:07;;;;;;;1.45;1.20;;;;;;;;;;8327131;28;20066;-68
2021/06/09 07:34:14;;;;;;;3.72;1.15;;;;;;;;;;8327824;28;20044;-68
2021/06/09 07:38:27;;;;;;;4.90;1.17;;;;;;;;;;8326274;28;20477;-66
2021/06/09 07:42:32;;;;;;;7.50;1.30;;;;;;;;;;8309866;28;20075;-68
2021/06/09 07:46:40;;;;;;;3.20;1.42;;;;;;;;;;8309497;28;20359;-68
2021/06/09 07:50:51;;;;;;;3.63;1.70;;;;;;;;;;8310656;28;20489;-67
2021/06/09 07:54:58;;;;;;;3.80;1.38;;;;;;;;;;8325772;28;20341;-68
2021/06/09 07:59:06;;;;;;;;;;;;;;;;;;8310577;28;20382;-67
2021/06/09 08:03:11;;;;;;;4.18;1.02;;;;;;;;;;8325963;28;20246;-67
2021/06/09 08:07:16;;;;;;;3.90;1.42;;;;;;;;;;8325647;28;20465;-67
2021/06/09 08:11:21;;;;;;;2.00;1.00;;;;;;;;;;8325557;28;20469;-67
2021/06/09 08:15:27;;;;;;;1.95;1.10;;;;;;;;;;8325598;28;20367;-66
2021/06/09 08:19:32;;;;;;;1.73;1.20;;;;;;;;;;8308654;28;20390;-68
2021/06/09 08:23:37;;;;;;;2.35;1.20;;;;;;;;;;8324384;28;20425;-67
2021/06/09 08:27:42;;;;;;;2.33;1.20;;;;;;;;;;8325028;28;20490;-67
2021/06/09 08:31:46;;;;;;;2.50;1.30;;;;;;;;;;8324453;28;20463;-67
2021/06/09 08:35:52;;;;;;;4.30;1.35;;;;;;;;;;8308529;28;20358;-68
2021/06/09 08:39:57;;;;;;;1.85;1.45;;;;;;;;;;8322055;28;20470;-69
2021/06/09 08:44:04;;;;;;;1.17;1.08;;;;;;;;;;8323041;28;20417;-68
2021/06/09 08:48:10;;;;;;;3.10;1.70;;;;;;;;;;8322511;28;20056;-67
2021/06/09 08:52:15;;;;;;;4.18;1.20;;;;;;;;;;8323448;28;20355;-68
2021/06/09 08:56:22;;;;;;;2.67;1.65;;;;;;;;;;8322075;28;20371;-69
2021/06/09 09:00:27;;;;;;;5.70;1.33;;;;;;;;;;8323603;28;20052;-67
2021/06/09 09:04:33;;;;;;;5.03;1.17;;;;;;;;;;8323822;28;20409;-67
2021/06/09 09:08:38;;;;;;;2.50;1.10;;;;;;;;;;8325186;28;20382;-67
2021/06/09 09:12:44;;;;;;;23.15;2.53;;;;;;;;;;8326573;28;20367;-68
2021/06/09 09:17:21;;;;;;;2.50;1.20;;;;;;;;;;8324186;28;20382;-68
2021/06/09 09:21:40;;;;;;;2.80;1.17;;;;;;;;;;8291317;28;20616;-68
2021/06/09 09:25:46;;;;;;;3.92;1.30;;;;;;;;;;8327962;28;20367;-68
2021/06/09 09:30:08;;;;;;;2.10;1.60;;;;;;;;;;8325517;28;20451;-67
2021/06/09 09:34:35;;;;;;;16.70;3.08;;;;;;;;;;8323565;28;20455;-68
2021/06/09 09:38:38;;;;;;;3.28;1.40;;;;;;;;;;8338307;28;20439;-68
2021/06/09 09:42:50;;;;;;;2.75;1.42;;;;;;;;;;8322794;28;20383;-67
2021/06/09 09:46:57;;;;;;;9.38;1.50;;;;;;;;;;8322883;28;20485;-69
2021/06/09 09:51:03;;;;;;;4.78;1.40;;;;;;;;;;8323422;28;20443;-67
2021/06/09 09:55:08;;;;;;;5.18;1.85;;;;;;;;;;8322839;28;20052;-69
2021/06/09 09:59:13;;;;;;;8.10;1.92;;;;;;;;;;8326186;28;20375;-70
2021/06/09 10:03:20;;;;;;;2.00;1.15;;;;;;;;;;8324111;28;20118;-69
2021/06/09 10:07:25;;;;;;;4.45;1.50;;;;;;;;;;8326134;28;20436;-68
2021/06/09 10:11:29;;;;;;;3.10;1.40;;;;;;;;;;8323320;28;20455;-69
2021/06/09 10:15:47;;;;;;;2.00;1.30;;;;;;;;;;8324621;28;20367;-68
2021/06/09 10:19:56;;;;;;;5.60;1.50;;;;;;;;;;8323419;28;20360;-67
2021/06/09 10:24:08;;;;;;;25.80;2.30;;;;;;;;;;8322627;28;20102;-68
2021/06/09 10:28:14;;;;;;;2.38;1.42;;;;;;;;;;8324332;28;20505;-67
2021/06/09 10:32:19;;;;;;;51.13;4.45;;;;;;;;;;8325852;28;20447;-67
2021/06/09 10:36:25;;;;;;;5.03;1.98;;;;;;;;;;8323283;28;20505;-68
2021/06/09 10:40:32;;;;;;;3.53;1.70;;;;;;;;;;8322168;28;20062;-67
2021/06/09 10:44:44;;;;;;;22.00;2.40;;;;;;;;;;8323053;28;20439;-67
2021/06/09 10:48:55;;;;;;;6.53;2.20;;;;;;;;;;8323257;28;20497;-68
2021/06/09 10:53:06;;;;;;;6.60;2.13;;;;;;;;;;8321366;28;20078;-68
2021/06/09 10:57:11;;;;;;;4.90;1.83;;;;;;;;;;8322078;28;20483;-68
2021/06/09 11:01:23;;;;;;;3.47;2.38;;;;;;;;;;8321190;28;20368;-67
2021/06/09 11:05:28;;;;;;;3.47;2.03;;;;;;;;;;8325303;28;20056;-67
2021/06/09 11:09:33;;;;;;;3.30;1.70;;;;;;;;;;8327386;28;20425;-69
2021/06/09 11:13:41;;;;;;;2.92;1.63;;;;;;;;;;8327740;28;20493;-68
2021/06/09 11:17:58;;;;;;;2.38;1.80;;;;;;;;;;8327216;28;20370;-68
2021/06/09 11:22:25;;;;;;;7.15;2.33;;;;;;;;;;8328130;28;20413;-69
2021/06/09 11:26:30;;;;;;;3.05;1.20;;;;;;;;;;8325783;28;20390;-67
2021/06/09 11:30:45;;;;;;;3.08;1.40;;;;;;;;;;8327109;28;20127;-68
2021/06/09 11:35:00;;;;;;;2.75;1.50;;;;;;;;;;8324748;28;20390;-69
2021/06/09 11:39:19;;;;;;;13.27;3.40;;;;;;;;;;8311453;28;20478;-69
2021/06/09 11:43:34;;;;;;;3.33;1.88;;;;;;;;;;8327203;28;20056;-68
2021/06/09 11:47:39;;;;;;;2.35;1.67;;;;;;;;;;8325298;28;20478;-68
2021/06/09 11:51:46;;;;;;;7.68;2.03;;;;;;;;;;8324918;28;20378;-69
2021/06/09 11:56:19;;;;;;;3.35;1.95;;;;;;;;;;8328450;28;20478;-68
2021/06/09 12:00:24;;;;;;;2.90;1.70;;;;;;;;;;8323045;28;20479;-68
2021/06/09 12:04:41;;;;;;;11.13;2.05;;;;;;;;;;8326335;28;20431;-68
2021/06/09 12:08:51;;;;;;;3.40;1.60;;;;;;;;;;8325517;28;20390;-70
2021/06/09 12:12:56;;;;;;;7.38;1.90;;;;;;;;;;8324537;28;20471;-68
2021/06/09 12:17:22;;;;;;;5.82;1.85;;;;;;;;;;8326808;28;20370;-68
2021/06/09 12:21:26;;;;;;;2.25;1.63;;;;;;;;;;8324748;28;20520;-68
2021/06/09 12:25:31;;;;;;;5.75;1.98;;;;;;;;;;8326735;28;20056;-68
2021/06/09 12:29:41;;;;;;;2.92;1.40;;;;;;;;;;8324536;28;20364;-69
2021/06/09 12:33:46;;;;;;;5.03;1.45;;;;;;;;;;8325676;28;20044;-68
2021/06/09 12:37:59;;;;;;;199.32;12.75;;;;;;;;;;8323758;28;20459;-69
2021/06/09 12:42:16;;;;;;;5.35;1.77;;;;;;;;;;8326064;28;20060;-68
2021/06/09 12:46:21;;;;;;;11.43;2.47;;;;;;;;;;8325534;28;20107;-68
2021/06/09 12:50:33;;;;;;;4.55;1.80;;;;;;;;;;8325107;28;20393;-68
2021/06/09 12:54:56;;;;;;;10.52;2.25;;;;;;;;;;8324483;28;20375;-68
2021/06/09 12:59:01;;;;;;;4.18;1.73;;;;;;;;;;8326424;28;20475;-68
2021/06/09 13:03:25;;;;;;;5.68;1.90;;;;;;;;;;8326235;28;20051;-71
2021/06/09 13:07:28;;;;;;;9.88;2.58;;;;;;;;;;8322873;28;20455;-67
2021/06/09 13:11:35;;;;;;;3.78;1.83;;;;;;;;;;8322317;28;20402;-67
2021/06/09 13:15:43;;;;;;;20.42;2.58;;;;;;;;;;8322489;28;20409;-67
2021/06/09 13:19:48;;;;;;;5.20;1.95;;;;;;;;;;8324544;28;20459;-67
2021/06/09 13:24:32;;;;;;;7.90;1.90;;;;;;;;;;8323908;28;20416;-67
2021/06/09 13:28:38;;;;;;;5.72;1.90;;;;;;;;;;8323349;28;20530;-67
2021/06/09 13:32:43;;;;;;;11.88;2.25;;;;;;;;;;8323774;28;20040;-67
2021/06/09 13:36:48;;;;;;;3.08;1.60;;;;;;;;;;8323204;28;20486;-67
2021/06/09 13:40:54;;;;;;;1.48;1.38;;;;;;;;;;8290396;28;20373;-68
2021/06/09 13:45:03;;;;;;;2.95;1.75;;;;;;;;;;8323034;28;20383;-68
2021/06/09 13:49:33;;;;;;;3.38;1.73;;;;;;;;;;8323452;28;20344;-69
2021/06/09 13:53:58;;;;;;;4.78;2.28;;;;;;;;;;8322356;28;20509;-68
2021/06/09 13:58:04;;;;;;;4.90;1.77;;;;;;;;;;8323053;28;20388;-67
2021/06/09 14:02:17;;;;;;;3.25;1.90;;;;;;;;;;8322245;28;20382;-69
2021/06/09 14:06:22;;;;;;;6.10;2.33;;;;;;;;;;8323224;28;20438;-69
2021/06/09 14:10:31;;;;;;;5.53;2.60;;;;;;;;;;8323330;28;20477;-69
2021/06/09 14:14:38;;;;;;;5.50;2.03;;;;;;;;;;8320944;28;20355;-69
2021/06/09 14:18:43;;;;;;;;;;;;;;;;;;8323484;28;20071;-69
2021/06/09 14:22:54;;;;;;;3.45;2.10;;;;;;;;;;8324752;28;20271;-71
2021/06/09 14:27:04;;;;;;;16.67;2.70;;;;;;;;;;8323831;28;20451;-69
2021/06/09 14:31:21;;;;;;;5.57;3.40;;;;;;;;;;8324611;28;20356;-69
2021/06/09 14:35:27;;;;;;;4.35;2.63;;;;;;;;;;8320468;28;20421;-69
2021/06/09 14:39:32;;;;;;;21.63;3.67;;;;;;;;;;8325237;28;20344;-68
2021/06/09 14:43:37;;;;;;;7.53;2.97;;;;;;;;;;8328207;28;20044;-69
2021/06/09 14:48:04;;;;;;;11.18;2.92;;;;;;;;;;8331918;28;20447;-69
2021/06/09 14:52:32;;;;;;;5.13;3.20;;;;;;;;;;8326952;28;20383;-68
2021/06/09 14:56:37;;;;;;;5.18;3.30;;;;;;;;;;8329177;28;20642;-69
2021/06/09 15:00:40;;;;;;;5.95;3.13;;;;;;;;;;8327675;28;20394;-69
2021/06/09 15:04:48;;;;;;;4.78;2.70;;;;;;;;;;8328491;28;20365;-69
2021/06/09 15:08:52;;;;;;;5.35;3.00;;;;;;;;;;8328338;28;20455;-69
2021/06/09 15:13:08;;;;;;;7.60;3.08;;;;;;;;;;8327689;28;20055;-69
2021/06/09 15:17:13;;;;;;;6.28;3.08;;;;;;;;;;8327363;28;20479;-69
2021/06/09 15:21:18;;;;;;;4.72;3.15;;;;;;;;;;8327045;28;20052;-69
2021/06/09 15:25:22;;;;;;;3.75;3.05;;;;;;;;;;8326157;28;20485;-69
2021/06/09 15:29:28;;;;;;;12.43;3.58;;;;;;;;;;8326876;28;20052;-70
2021/06/09 15:33:33;;;;;;;4.47;2.97;;;;;;;;;;8325500;28;20036;-69
2021/06/09 15:37:38;;;;;;;4.05;2.80;;;;;;;;;;8325164;28;20512;-69
2021/06/09 15:41:45;;;;;;;7.05;2.63;;;;;;;;;;8327213;28;20821;-69
2021/06/09 15:45:50;;;;;;;5.45;2.83;;;;;;;;;;8326552;28;20485;-68
2021/06/09 15:49:56;;;;;;;7.50;3.08;;;;;;;;;;8326566;28;20366;-69
2021/06/09 15:54:00;;;;;;;4.57;2.85;;;;;;;;;;8327194;28;20461;-69
2021/06/09 15:58:05;;;;;;;5.95;3.10;;;;;;;;;;8326157;28;20477;-68
2021/06/09 16:02:11;;;;;;;5.97;3.00;;;;;;;;;;8329234;28;20351;-70
2021/06/09 16:06:16;;;;;;;11.23;3.00;;;;;;;;;;8326598;28;20451;-68
2021/06/09 16:10:21;;;;;;;6.07;2.92;;;;;;;;;;8326340;28;20454;-70
2021/06/09 16:14:26;;;;;;;5.88;2.70;;;;;;;;;;8325693;28;20451;-70
2021/06/09 16:18:32;;;;;;;4.45;2.92;;;;;;;;;;8326100;28;20473;-68
2021/06/09 16:22:36;;;;;;;9.05;3.28;;;;;;;;;;8326640;28;20048;-69
2021/06/09 16:26:41;;;;;;;4.05;2.90;;;;;;;;;;8324702;28;20366;-69
2021/06/09 16:30:46;;;;;;;3.47;2.72;;;;;;;;;;8325182;28;20571;-69
2021/06/09 16:34:51;;;;;;;4.13;3.05;;;;;;;;;;8324324;28;20064;-69
2021/06/09 16:38:56;;;;;;;3.65;2.40;;;;;;;;;;8324751;28;20448;-69
2021/06/09 16:43:12;;;;;;;3.75;2.80;;;;;;;;;;8322542;28;20493;-69
2021/06/09 16:47:22;;;;;;;5.03;2.47;;;;;;;;;;8325185;28;20495;-69
2021/06/09 16:51:28;;;;;;;20.30;2.83;;;;;;;;;;8325865;28;20443;-69
2021/06/09 16:55:43;;;;;;;4.90;3.10;;;;;;;;;;8325567;28;20496;-70
2021/06/09 16:59:47;;;;;;;12.88;2.85;;;;;;;;;;8322426;28;20056;-69
2021/06/09 17:03:52;;;;;;;7.82;2.65;;;;;;;;;;8323470;28;20048;-69
2021/06/09 17:07:57;;;;;;;13.65;3.15;;;;;;;;;;8324350;28;20465;-69
2021/06/09 17:12:02;;;;;;;9.43;2.65;;;;;;;;;;8323745;28;20382;-70
2021/06/09 17:16:07;;;;;;;3.90;2.65;;;;;;;;;;8324719;28;20052;-69
2021/06/09 17:20:13;;;;;;;3.85;2.70;;;;;;;;;;8323722;28;20463;-69
2021/06/09 17:24:17;;;;;;;3.10;2.25;;;;;;;;;;8325070;28;20382;-69
2021/06/09 17:28:25;;;;;;;6.18;2.50;;;;;;;;;;8323446;28;20375;-69
2021/06/09 17:32:29;;;;;;;10.07;2.90;;;;;;;;;;8322461;28;20396;-69
2021/06/09 17:36:34;;;;;;;5.07;2.30;;;;;;;;;;8323607;28;20478;-69
2021/06/09 17:40:38;;;;;;;9.43;2.60;;;;;;;;;;8324315;28;20367;-69
2021/06/09 17:44:43;;;;;;;3.60;2.35;;;;;;;;;;8321492;28;20368;-69
2021/06/09 17:48:49;;;;;;;3.25;1.98;;;;;;;;;;8322636;28;20421;-69
2021/06/09 17:52:54;;;;;;;3.42;2.22;;;;;;;;;;8322705;28;20470;-70
2021/06/09 17:57:00;;;;;;;4.93;1.70;;;;;;;;;;8325502;28;20442;-68
2021/06/09 18:01:18;;;;;;;5.30;1.80;;;;;;;;;;8324727;28;20444;-69
2021/06/09 18:05:21;;;;;;;2.97;1.88;;;;;;;;;;8321672;28;20435;-69
2021/06/09 18:09:26;;;;;;;4.07;2.10;;;;;;;;;;8322661;28;20470;-69
2021/06/09 18:13:31;;;;;;;3.67;2.13;;;;;;;;;;8323086;28;20044;-70
2021/06/09 18:17:36;;;;;;;3.67;1.55;;;;;;;;;;8329108;28;20478;-69
2021/06/09 18:21:41;;;;;;;4.95;1.60;;;;;;;;;;8327133;28;20496;-69
2021/06/09 18:25:46;;;;;;;2.20;1.40;;;;;;;;;;8328992;28;20371;-69
2021/06/09 18:29:51;;;;;;;2.17;1.30;;;;;;;;;;8328024;28;20066;-69
2021/06/09 18:33:56;;;;;;;10.70;1.75;;;;;;;;;;8329402;28;20470;-68
2021/06/09 18:38:03;;;;;;;19.88;2.42;;;;;;;;;;8326807;28;20040;-70
2021/06/09 18:42:09;;;;;;;8.43;2.47;;;;;;;;;;8326830;28;20497;-68
2021/06/09 18:46:14;;;;;;;13.98;3.63;;;;;;;;;;8328016;28;20451;-69
2021/06/09 18:50:24;;;;;;;9.80;3.60;;;;;;;;;;8329160;28;20056;-68
2021/06/09 18:54:29;;;;;;;12.40;4.38;;;;;;;;;;8330163;28;20048;-69
2021/06/09 18:58:36;;;;;;;6.82;3.90;;;;;;;;;;8327526;28;20383;-69
2021/06/09 19:02:40;;;;;;;8.10;2.80;;;;;;;;;;8329520;28;20354;-68
2021/06/09 19:06:44;;;;;;;5.55;2.28;;;;;;;;;;8326708;28;20476;-68
2021/06/09 19:10:51;;;;;;;6.70;2.47;;;;;;;;;;8327461;28;20070;-69
2021/06/09 19:14:56;;;;;;;12.35;3.40;;;;;;;;;;8328006;28;20036;-69
2021/06/09 19:19:01;;;;;;;7.53;2.38;;;;;;;;;;8327609;28;20375;-69
2021/06/09 19:23:06;;;;;;;3.67;2.20;;;;;;;;;;8326892;28;20459;-68
2021/06/09 19:27:11;;;;;;;3.60;2.60;;;;;;;;;;8325996;28;20455;-69
2021/06/09 19:31:16;;;;;;;6.80;3.10;;;;;;;;;;8327175;28;20382;-69
2021/06/09 19:35:22;;;;;;;9.57;3.28;;;;;;;;;;8325757;28;20417;-68
2021/06/09 19:39:27;;;;;;;6.30;2.83;;;;;;;;;;8326478;28;20374;-69
2021/06/09 19:43:32;;;;;;;4.93;3.03;;;;;;;;;;8308983;28;20565;-69
2021/06/09 19:47:37;;;;;;;5.28;2.80;;;;;;;;;;8326360;28;20413;-68
2021/06/09 19:51:43;;;;;;;10.25;2.85;;;;;;;;;;8326061;28;20482;-68
2021/06/09 19:55:48;;;;;;;6.43;2.95;;;;;;;;;;8324689;28;20505;-68
2021/06/09 19:59:53;;;;;;;7.88;2.72;;;;;;;;;;8327915;28;20451;-69
2021/06/09 20:04:23;;;;;;;14.98;2.90;;;;;;;;;;8326830;28;20067;-68
2021/06/09 20:08:28;;;;;;;6.10;2.58;;;;;;;;;;8326130;28;20076;-69
2021/06/09 20:12:33;;;;;;;6.97;2.83;;;;;;;;;;8324673;28;20482;-68
2021/06/09 20:16:39;;;;;;;5.20;2.17;;;;;;;;;;8326584;28;20075;-68
2021/06/09 20:20:44;;;;;;;6.65;2.13;;;;;;;;;;8326719;28;20463;-69
2021/06/09 20:24:54;;;;;;;4.65;2.08;;;;;;;;;;8325690;28;20471;-68
2021/06/09 20:29:00;;;;;;;9.75;2.83;;;;;;;;;;8325195;28;20140;-68
2021/06/09 20:33:03;;;;;;;8.52;3.30;;;;;;;;;;8326168;28;20461;-69
2021/06/09 20:37:09;;;;;;;13.88;3.53;;;;;;;;;;8325603;28;20536;-68
2021/06/09 20:41:16;;;;;;;;;;;;;;;;;;8325460;28;20366;-68
2021/06/09 20:45:22;;;;;;;4.15;2.47;;;;;;;;;;8324354;28;20262;-68
2021/06/09 20:49:27;;;;;;;13.38;3.10;;;;;;;;;;8326143;28;20352;-68
2021/06/09 20:53:32;;;;;;;20.10;3.88;;;;;;;;;;8324910;28;20614;-68
2021/06/09 20:57:37;;;;;;;5.00;2.35;;;;;;;;;;8323295;28;20120;-68
2021/06/09 21:01:43;;;;;;;44.72;5.95;;;;;;;;;;8324178;28;20375;-68
2021/06/09 21:05:49;;;;;;;9.57;2.55;;;;;;;;;;8324614;28;20073;-68
2021/06/09 21:09:53;;;;;;;5.47;2.60;;;;;;;;;;8325543;28;20370;-68
2021/06/09 21:13:58;;;;;;;7.18;2.97;;;;;;;;;;8324339;28;20044;-68
2021/06/09 21:18:04;;;;;;;8.38;1.98;;;;;;;;;;8324151;28;20370;-68
2021/06/09 21:22:09;;;;;;;6.75;2.60;;;;;;;;;;8324569;28;20483;-69
2021/06/09 21:26:14;;;;;;;16.02;3.63;;;;;;;;;;8325148;28;20475;-68
2021/06/09 21:30:19;;;;;;;6.40;3.00;;;;;;;;;;8323940;28;20374;-68
2021/06/09 21:34:25;;;;;;;5.80;2.90;;;;;;;;;;8323788;28;20079;-69
2021/06/09 21:38:28;;;;;;;6.47;2.88;;;;;;;;;;8291705;28;20048;-68
2021/06/09 21:42:34;;;;;;;5.97;2.85;;;;;;;;;;8290820;28;20474;-68
2021/06/09 21:46:39;;;;;;;11.45;3.05;;;;;;;;;;8290444;28;20351;-68
2021/06/09 21:50:44;;;;;;;4.35;2.58;;;;;;;;;;8289117;28;20498;-68
2021/06/09 21:54:49;;;;;;;7.65;2.97;;;;;;;;;;8290597;28;20399;-68
2021/06/09 21:58:54;;;;;;;6.63;2.75;;;;;;;;;;8291814;28;20349;-68
2021/06/09 22:02:59;;;;;;;4.22;2.50;;;;;;;;;;8292126;28;20379;-69
2021/06/09 22:07:04;;;;;;;7.47;3.15;;;;;;;;;;8290742;28;20345;-69
2021/06/09 22:11:09;;;;;;;7.38;1.90;;;;;;;;;;8291265;28;20491;-68
2021/06/09 22:15:15;;;;;;;7.72;4.93;;;;;;;;;;8289689;28;20487;-68
2021/06/09 22:19:20;;;;;;;21.80;10.77;;;;;;;;;;8290383;28;20406;-68
2021/06/09 22:23:25;;;;;;;21.52;10.93;;;;;;;;;;8290230;28;20387;-68
2021/06/09 22:27:30;;;;;;;57.80;28.30;;;;;;;;;;8272127;28;20066;-68
2021/06/09 22:31:35;;;;;;;26.27;11.00;;;;;;;;;;8289640;28;20353;-69
2021/06/09 22:35:40;;;;;;;9.52;4.00;;;;;;;;;;8298090;28;20489;-68
2021/06/09 22:39:44;;;;;;;8.13;4.70;;;;;;;;;;8322942;28;20455;-69
2021/06/09 22:43:49;;;;;;;7.07;4.30;;;;;;;;;;8322743;28;20390;-68
2021/06/09 22:47:54;;;;;;;20.55;10.05;;;;;;;;;;8320495;28;20409;-68
2021/06/09 22:52:03;;;;;;;30.35;10.95;;;;;;;;;;8324121;28;20343;-68
2021/06/09 22:56:08;;;;;;;13.13;6.35;;;;;;;;;;8305088;28;20048;-68
2021/06/09 23:00:18;;;;;;;6.97;3.50;;;;;;;;;;8324528;28;20427;-69
2021/06/09 23:04:24;;;;;;;5.10;2.58;;;;;;;;;;8328404;28;20398;-69
2021/06/09 23:08:29;;;;;;;7.60;4.10;;;;;;;;;;8328041;28;20397;-69
2021/06/09 23:12:35;;;;;;;18.05;3.50;;;;;;;;;;8328292;28;20471;-68
2021/06/09 23:16:40;;;;;;;5.70;2.92;;;;;;;;;;8327918;28;20366;-68
2021/06/09 23:20:45;;;;;;;7.55;3.80;;;;;;;;;;8328322;28;20463;-68
2021/06/09 23:24:52;;;;;;;7.40;2.97;;;;;;;;;;8328343;28;20467;-69
2021/06/09 23:28:57;;;;;;;8.35;4.22;;;;;;;;;;8330863;28;20406;-69
2021/06/09 23:33:02;;;;;;;7.18;3.05;;;;;;;;;;8327456;28;20048;-68
2021/06/09 23:37:07;;;;;;;8.90;3.88;;;;;;;;;;8327192;28;20417;-68
2021/06/09 23:41:12;;;;;;;6.45;3.22;;;;;;;;;;8326955;28;20390;-68
2021/06/09 23:45:18;;;;;;;12.95;3.22;;;;;;;;;;8330277;28;20413;-68
2021/06/09 23:49:25;;;;;;;8.15;3.33;;;;;;;;;;8327492;28;20397;-68
2021/06/09 23:53:31;;;;;;;6.65;3.20;;;;;;;;;;8325202;28;20341;-68
2021/06/09 23:57:36;;;;;;;6.07;3.58;;;;;;;;;;8327057;28;20071;-67
